Time;durP1;ratioP1;P1;durP2;ratioP2;P2;SDS_P1;SDS_P2;PMS_P1;PMS_P2;Temp;Humidity;BMP_temperature;BMP_pressure;BME280_temperature;BME280_humidity;BME280_pressure;Samples;Min_cycle;Max_cycle;Signal;HPM_P1;HPM_P2
2020/12/24 00:02:24;;;;;;;0.50;0.50;;;15.60;61.30;;;;;;5049757;28;20802;-65
2020/12/24 00:04:50;;;;;;;0.60;0.60;;;15.50;61.60;;;;;;5053976;28;20261;-68
2020/12/24 00:07:17;;;;;;;0.50;0.50;;;15.50;61.60;;;;;;5052552;28;20249;-66
2020/12/24 00:09:44;;;;;;;0.60;0.60;;;15.50;61.40;;;;;;5046454;28;20205;-65
2020/12/24 00:12:11;;;;;;;0.50;0.50;;;15.50;61.50;;;;;;5053984;28;20635;-65
2020/12/24 00:14:38;;;;;;;0.50;0.50;;;15.40;61.70;;;;;;5052773;28;20765;-67
2020/12/24 00:17:04;;;;;;;0.57;0.57;;;15.40;61.80;;;;;;5052061;28;20194;-67
2020/12/24 00:19:32;;;;;;;0.53;0.50;;;15.40;61.90;;;;;;5054156;28;20278;-66
2020/12/24 00:21:58;;;;;;;0.70;0.70;;;15.40;62.00;;;;;;5052114;28;20264;-66
2020/12/24 00:24:25;;;;;;;1.00;0.90;;;15.40;62.00;;;;;;5052572;28;20679;-66
2020/12/24 00:26:51;;;;;;;2.40;2.20;;;15.40;62.00;;;;;;5046680;28;20232;-65
2020/12/24 00:29:18;;;;;;;1.83;1.73;;;15.30;62.10;;;;;;5051532;28;20548;-65
2020/12/24 00:31:45;;;;;;;1.20;1.10;;;15.30;62.40;;;;;;5048901;28;20233;-65
2020/12/24 00:34:11;;;;;;;0.40;0.40;;;15.30;62.50;;;;;;5043154;28;20295;-65
2020/12/24 00:36:39;;;;;;;0.50;0.50;;;15.30;62.60;;;;;;5042397;28;20213;-65
2020/12/24 00:39:06;;;;;;;0.50;0.50;;;15.30;62.70;;;;;;5043008;28;20220;-65
2020/12/24 00:41:32;;;;;;;0.70;0.60;;;15.30;62.60;;;;;;5046572;28;20229;-65
2020/12/24 00:43:58;;;;;;;0.40;0.40;;;15.30;62.50;;;;;;5052451;28;20213;-65
2020/12/24 00:46:25;;;;;;;0.40;0.40;;;15.20;62.50;;;;;;5054147;28;20210;-66
2020/12/24 00:48:51;;;;;;;0.50;0.50;;;15.20;62.60;;;;;;5054112;28;20212;-66
2020/12/24 00:51:18;;;;;;;0.40;0.40;;;15.20;62.70;;;;;;5051081;28;20216;-66
2020/12/24 00:53:45;;;;;;;0.50;0.50;;;15.20;62.80;;;;;;5054267;28;20209;-65
2020/12/24 00:56:11;;;;;;;0.43;0.43;;;15.20;62.90;;;;;;5055752;28;20215;-66
2020/12/24 00:58:38;;;;;;;0.40;0.40;;;15.10;63.00;;;;;;5055209;28;20202;-66
2020/12/24 01:01:04;;;;;;;0.47;0.47;;;15.20;63.10;;;;;;5053871;28;20925;-66
2020/12/24 01:03:31;;;;;;;0.57;0.57;;;15.20;63.20;;;;;;5054043;28;21673;-66
2020/12/24 01:05:58;;;;;;;0.43;0.43;;;15.10;63.10;;;;;;5054315;28;20209;-66
2020/12/24 01:08:24;;;;;;;0.40;0.40;;;15.10;63.10;;;;;;5055333;28;20258;-66
2020/12/24 01:10:53;;;;;;;0.50;0.50;;;15.10;63.10;;;;;;5054909;28;20237;-66
2020/12/24 01:13:19;;;;;;;0.40;0.40;;;15.10;63.20;;;;;;5057379;28;20217;-66
2020/12/24 01:15:46;;;;;;;0.40;0.40;;;15.10;63.20;;;;;;5059390;28;20663;-66
2020/12/24 01:18:12;;;;;;;0.50;0.40;;;15.10;63.30;;;;;;5063295;28;20673;-67
2020/12/24 01:20:38;;;;;;;0.60;0.40;;;15.10;63.30;;;;;;5058458;28;20776;-66
2020/12/24 01:23:05;;;;;;;0.47;0.47;;;15.10;63.50;;;;;;5059664;28;20678;-66
2020/12/24 01:25:32;;;;;;;0.50;0.50;;;15.10;63.70;;;;;;5055449;28;20292;-66
2020/12/24 01:27:59;;;;;;;0.37;0.37;;;15.10;63.70;;;;;;5057465;28;20225;-65
2020/12/24 01:30:26;;;;;;;0.67;0.67;;;15.10;63.90;;;;;;5058189;28;20717;-67
2020/12/24 01:32:53;;;;;;;0.60;0.60;;;15.10;63.80;;;;;;5054835;28;20245;-67
2020/12/24 01:35:19;;;;;;;0.63;0.63;;;15.10;63.90;;;;;;5058769;28;20224;-67
2020/12/24 01:37:46;;;;;;;0.60;0.60;;;15.10;64.00;;;;;;5059292;28;20240;-65
2020/12/24 01:40:12;;;;;;;0.60;0.60;;;15.10;64.10;;;;;;5053858;28;20215;-65
2020/12/24 01:42:39;;;;;;;0.60;0.60;;;15.10;64.20;;;;;;5056998;28;20233;-65
2020/12/24 01:45:07;;;;;;;0.50;0.50;;;15.10;64.30;;;;;;5058142;28;20209;-66
2020/12/24 01:47:33;;;;;;;0.60;0.53;;;15.10;64.40;;;;;;5054789;28;20268;-66
2020/12/24 01:50:00;;;;;;;0.60;0.60;;;15.10;64.30;;;;;;5053649;28;20197;-66
2020/12/24 01:52:34;;;;;;;0.60;0.60;;;15.10;64.30;;;;;;5054969;28;20202;-66
2020/12/24 01:55:04;;;;;;;0.67;0.50;;;15.10;64.80;;;;;;5047603;28;20204;-66
2020/12/24 01:57:30;;;;;;;0.57;0.57;;;15.10;64.50;;;;;;5052563;28;20292;-67
2020/12/24 01:59:57;;;;;;;0.70;0.70;;;15.10;64.60;;;;;;5057328;28;20263;-66
2020/12/24 02:02:24;;;;;;;0.63;0.63;;;15.10;64.80;;;;;;5055166;28;20213;-66
2020/12/24 02:04:51;;;;;;;0.53;0.53;;;15.10;64.90;;;;;;5056079;28;20214;-66
2020/12/24 02:07:19;;;;;;;0.70;0.70;;;15.10;64.80;;;;;;5056246;28;20213;-67
2020/12/24 02:09:47;;;;;;;0.60;0.50;;;15.10;64.90;;;;;;5055711;28;20217;-67
2020/12/24 02:12:14;;;;;;;0.80;0.70;;;15.00;64.90;;;;;;5056809;28;20200;-67
2020/12/24 02:14:41;;;;;;;0.70;0.70;;;15.00;64.90;;;;;;5056872;28;20201;-67
2020/12/24 02:17:07;;;;;;;0.87;0.80;;;15.00;65.00;;;;;;5055672;28;20193;-67
2020/12/24 02:19:35;;;;;;;0.70;0.60;;;15.00;65.20;;;;;;5055140;28;20209;-67
2020/12/24 02:22:04;;;;;;;0.47;0.47;;;14.90;65.20;;;;;;5054435;28;20225;-65
2020/12/24 02:24:31;;;;;;;0.50;0.50;;;14.90;65.20;;;;;;5055156;28;20197;-66
2020/12/24 02:26:57;;;;;;;0.60;0.60;;;14.90;65.20;;;;;;5056318;28;20242;-67
2020/12/24 02:29:24;;;;;;;0.60;0.60;;;14.90;65.20;;;;;;5058024;28;20929;-67
2020/12/24 02:31:50;;;;;;;0.50;0.50;;;14.80;65.20;;;;;;5057307;28;20307;-66
2020/12/24 02:34:17;;;;;;;0.60;0.60;;;14.80;65.30;;;;;;5056948;28;20232;-66
2020/12/24 02:36:43;;;;;;;0.60;0.60;;;14.80;65.50;;;;;;5058567;28;20213;-66
2020/12/24 02:39:11;;;;;;;0.60;0.60;;;14.70;65.60;;;;;;5052484;28;20630;-67
2020/12/24 02:41:37;;;;;;;0.60;0.60;;;14.70;65.80;;;;;;5055002;28;21002;-66
2020/12/24 02:44:04;;;;;;;0.60;0.60;;;14.70;65.90;;;;;;5057551;28;20681;-66
2020/12/24 02:46:30;;;;;;;0.67;0.60;;;14.70;66.00;;;;;;5055584;28;20682;-66
2020/12/24 02:48:57;;;;;;;0.60;0.60;;;14.70;66.70;;;;;;5055633;28;20214;-67
2020/12/24 02:51:24;;;;;;;0.60;0.60;;;14.60;66.00;;;;;;5057245;28;20276;-66
2020/12/24 02:53:50;;;;;;;0.50;0.50;;;14.60;66.10;;;;;;5057474;28;20276;-65
2020/12/24 02:56:17;;;;;;;0.50;0.50;;;14.60;66.20;;;;;;5063276;28;20204;-66
2020/12/24 02:58:44;;;;;;;0.60;0.60;;;14.60;66.30;;;;;;5060874;28;20209;-66
2020/12/24 03:01:10;;;;;;;0.70;0.63;;;14.60;66.40;;;;;;5054761;28;20222;-66
2020/12/24 03:03:37;;;;;;;0.53;0.53;;;14.60;66.60;;;;;;5058792;28;20208;-67
2020/12/24 03:06:03;;;;;;;0.50;0.50;;;14.60;66.70;;;;;;5057406;28;20233;-67
2020/12/24 03:08:30;;;;;;;0.57;0.57;;;14.50;66.70;;;;;;5059576;28;20228;-65
2020/12/24 03:10:56;;;;;;;0.60;0.60;;;14.50;66.70;;;;;;5056865;28;20216;-66
2020/12/24 03:13:23;;;;;;;0.50;0.50;;;14.50;66.90;;;;;;5059137;28;20209;-66
2020/12/24 03:15:50;;;;;;;0.67;0.67;;;14.50;67.10;;;;;;5062699;28;20207;-66
2020/12/24 03:18:16;;;;;;;0.60;0.60;;;14.50;67.20;;;;;;5060424;28;20201;-66
2020/12/24 03:20:43;;;;;;;0.40;0.40;;;14.50;67.30;;;;;;5052964;28;20229;-66
2020/12/24 03:23:09;;;;;;;0.50;0.50;;;14.50;67.30;;;;;;5055879;28;20208;-67
2020/12/24 03:25:36;;;;;;;0.50;0.50;;;14.50;67.50;;;;;;5053582;28;20217;-65
2020/12/24 03:28:02;;;;;;;0.57;0.57;;;14.50;67.50;;;;;;5050683;28;20601;-65
2020/12/24 03:30:30;;;;;;;0.40;0.40;;;14.50;67.60;;;;;;5052592;28;20320;-65
2020/12/24 03:32:56;;;;;;;0.83;0.50;;;14.50;67.60;;;;;;5052501;28;20205;-65
2020/12/24 03:35:22;;;;;;;0.60;0.60;;;14.50;67.60;;;;;;5052893;28;20289;-65
2020/12/24 03:37:49;;;;;;;0.50;0.50;;;14.50;67.60;;;;;;5052600;28;20208;-65
2020/12/24 03:40:15;;;;;;;0.53;0.53;;;14.50;67.50;;;;;;5052334;28;20229;-65
2020/12/24 03:42:42;;;;;;;0.40;0.40;;;14.40;67.40;;;;;;5049839;28;20217;-65
2020/12/24 03:45:08;;;;;;;0.50;0.50;;;14.40;68.10;;;;;;5050194;28;20255;-65
2020/12/24 03:47:36;;;;;;;0.33;0.33;;;14.40;67.40;;;;;;5050883;28;20217;-65
2020/12/24 03:50:03;;;;;;;0.50;0.50;;;14.40;67.40;;;;;;5051978;28;20223;-65
2020/12/24 03:52:30;;;;;;;0.53;0.53;;;14.40;67.40;;;;;;5052442;28;20465;-65
2020/12/24 03:54:56;;;;;;;0.63;0.40;;;14.30;67.50;;;;;;5050625;28;20210;-64
2020/12/24 03:57:23;;;;;;;0.50;0.40;;;14.30;67.50;;;;;;5054383;28;20203;-64
2020/12/24 03:59:49;;;;;;;0.30;0.30;;;14.30;67.50;;;;;;5049797;28;20216;-64
2020/12/24 04:02:15;;;;;;;0.23;0.23;;;14.20;67.50;;;;;;5051626;28;20205;-65
2020/12/24 04:04:43;;;;;;;0.30;0.30;;;14.20;67.60;;;;;;5049926;28;20209;-65
2020/12/24 04:07:09;;;;;;;0.50;0.30;;;14.20;67.60;;;;;;5054007;28;20271;-66
2020/12/24 04:09:36;;;;;;;0.40;0.40;;;14.10;67.50;;;;;;5052422;28;20213;-66
2020/12/24 04:12:02;;;;;;;0.23;0.23;;;14.10;67.40;;;;;;5052356;28;20300;-66
2020/12/24 04:14:30;;;;;;;0.20;0.20;;;14.00;67.30;;;;;;5055123;28;20200;-66
2020/12/24 04:16:56;;;;;;;0.23;0.23;;;14.00;67.40;;;;;;5052592;28;20296;-66
2020/12/24 04:19:22;;;;;;;0.20;0.20;;;14.00;67.30;;;;;;5052743;28;20216;-66
2020/12/24 04:21:50;;;;;;;0.20;0.20;;;13.90;67.20;;;;;;5052228;28;20237;-65
2020/12/24 04:24:16;;;;;;;0.20;0.20;;;13.90;67.20;;;;;;5053575;28;20624;-65
2020/12/24 04:26:43;;;;;;;1.13;0.30;;;13.90;67.20;;;;;;5055774;28;20193;-66
2020/12/24 04:29:09;;;;;;;0.20;0.20;;;13.80;67.20;;;;;;5048583;28;20217;-66
2020/12/24 04:31:42;;;;;;;0.20;0.20;;;13.80;67.20;;;;;;5051062;28;20235;-66
2020/12/24 04:34:08;;;;;;;0.20;0.20;;;13.80;67.20;;;;;;5053278;28;20217;-67
2020/12/24 04:36:35;;;;;;;0.37;0.30;;;13.70;67.00;;;;;;5053197;28;20197;-66
2020/12/24 04:39:03;;;;;;;0.20;0.20;;;13.70;67.00;;;;;;5054170;28;20209;-65
2020/12/24 04:41:30;;;;;;;0.20;0.20;;;13.70;67.00;;;;;;5054999;28;20225;-65
2020/12/24 04:43:59;;;;;;;2.27;0.20;;;13.60;67.00;;;;;;5055737;28;20275;-65
2020/12/24 04:46:29;;;;;;;0.20;0.20;;;13.60;67.10;;;;;;5058198;28;20603;-65
2020/12/24 04:48:58;;;;;;;0.33;0.33;;;13.60;67.00;;;;;;5054916;28;20273;-66
2020/12/24 04:51:26;;;;;;;0.27;0.20;;;13.60;67.00;;;;;;5054227;28;20355;-65
2020/12/24 04:53:53;;;;;;;0.40;0.20;;;13.50;67.10;;;;;;5053864;28;20239;-65
2020/12/24 04:56:21;;;;;;;0.30;0.30;;;13.50;67.20;;;;;;5054650;28;20208;-65
2020/12/24 04:58:47;;;;;;;0.30;0.30;;;13.50;67.10;;;;;;5057238;28;20193;-65
2020/12/24 05:01:16;;;;;;;0.20;0.20;;;13.50;67.00;;;;;;5054296;28;20217;-65
2020/12/24 05:03:43;;;;;;;0.20;0.20;;;13.50;67.00;;;;;;5056216;28;20258;-65
2020/12/24 05:06:15;;;;;;;0.20;0.20;;;13.50;66.80;;;;;;5056030;28;20209;-66
2020/12/24 05:08:51;;;;;;;0.30;0.30;;;13.40;66.60;;;;;;5056340;28;20765;-66
2020/12/24 05:11:26;;;;;;;0.20;0.20;;;13.40;66.60;;;;;;5061256;28;20629;-66
2020/12/24 05:13:53;;;;;;;0.20;0.20;;;13.40;66.50;;;;;;5064581;28;20549;-66
2020/12/24 05:16:19;;;;;;;0.30;0.30;;;13.40;66.60;;;;;;5060610;28;20229;-66
2020/12/24 05:18:46;;;;;;;0.30;0.30;;;13.30;66.60;;;;;;5054563;28;20197;-67
2020/12/24 05:21:31;;;;;;;0.30;0.30;;;13.30;66.40;;;;;;5054566;28;20279;-67
2020/12/24 05:23:58;;;;;;;0.30;0.30;;;13.30;66.20;;;;;;5056970;28;20198;-66
2020/12/24 05:26:30;;;;;;;0.37;0.37;;;13.30;66.20;;;;;;5056772;28;20651;-65
2020/12/24 05:29:11;;;;;;;0.20;0.20;;;13.20;66.00;;;;;;5053418;28;20253;-65
2020/12/24 05:31:38;;;;;;;0.40;0.40;;;13.20;66.00;;;;;;5055597;28;20232;-65
2020/12/24 05:34:04;;;;;;;0.30;0.30;;;13.20;66.00;;;;;;5054211;28;20220;-65
2020/12/24 05:36:31;;;;;;;0.30;0.30;;;13.10;65.90;;;;;;5055237;28;20607;-65
2020/12/24 05:38:57;;;;;;;0.20;0.20;;;13.10;65.80;;;;;;5055217;28;20677;-65
2020/12/24 05:41:34;;;;;;;0.20;0.20;;;13.00;65.60;;;;;;5056805;28;20287;-65
2020/12/24 05:44:04;;;;;;;0.33;0.20;;;13.00;65.70;;;;;;5055592;28;20206;-66
2020/12/24 05:46:41;;;;;;;0.77;0.20;;;13.00;65.90;;;;;;5055173;28;20308;-65
2020/12/24 05:49:16;;;;;;;0.20;0.20;;;13.00;65.90;;;;;;5055141;28;20197;-66
2020/12/24 05:51:47;;;;;;;0.30;0.30;;;12.90;65.80;;;;;;5049024;28;20232;-66
2020/12/24 05:54:16;;;;;;;0.30;0.30;;;12.90;65.70;;;;;;5054104;28;20237;-66
2020/12/24 05:56:45;;;;;;;0.40;0.40;;;12.80;65.60;;;;;;5055710;28;20209;-65
2020/12/24 05:59:16;;;;;;;0.20;0.20;;;12.80;65.60;;;;;;5051018;28;20202;-65
2020/12/24 06:02:04;;;;;;;0.30;0.30;;;12.80;65.60;;;;;;5054401;28;20221;-65
2020/12/24 06:04:53;;;;;;;0.40;0.30;;;12.70;65.50;;;;;;5052827;28;20216;-65
2020/12/24 06:07:32;;;;;;;0.30;0.30;;;12.70;65.40;;;;;;5056292;28;20236;-66
2020/12/24 06:10:07;;;;;;;0.30;0.30;;;12.70;65.40;;;;;;5056978;28;20677;-66
2020/12/24 06:12:50;;;;;;;0.20;0.20;;;12.60;65.30;;;;;;5053299;28;20636;-66
2020/12/24 06:15:17;;;;;;;0.30;0.30;;;12.60;65.50;;;;;;5049994;28;20230;-66
2020/12/24 06:17:45;;;;;;;0.20;0.20;;;12.50;65.50;;;;;;5055310;28;20647;-65
2020/12/24 06:20:19;;;;;;;0.23;0.23;;;12.50;65.30;;;;;;5053909;28;20240;-65
2020/12/24 06:22:46;;;;;;;0.40;0.40;;;12.50;64.90;;;;;;5054016;28;20218;-64
2020/12/24 06:25:12;;;;;;;1.00;0.30;;;12.50;65.00;;;;;;5055585;28;20202;-66
2020/12/24 06:27:45;;;;;;;0.40;0.30;;;12.40;64.90;;;;;;5057082;28;20225;-66
2020/12/24 06:30:20;;;;;;;0.30;0.30;;;12.40;64.60;;;;;;5053695;28;20228;-66
2020/12/24 06:32:49;;;;;;;0.30;0.20;;;12.30;64.60;;;;;;5052564;28;20197;-66
2020/12/24 06:35:34;;;;;;;0.30;0.30;;;12.30;64.60;;;;;;5053982;28;20201;-66
2020/12/24 06:38:02;;;;;;;0.40;0.40;;;12.20;63.90;;;;;;5053449;28;20759;-66
2020/12/24 06:40:31;;;;;;;0.87;0.40;;;12.20;64.20;;;;;;5053479;28;20234;-67
2020/12/24 06:42:59;;;;;;;0.40;0.40;;;12.20;64.10;;;;;;5053513;28;20742;-66
2020/12/24 06:45:35;;;;;;;0.40;0.40;;;12.10;64.00;;;;;;5053637;28;20254;-66
2020/12/24 06:48:21;;;;;;;0.30;0.30;;;12.10;63.70;;;;;;5054999;28;20232;-66
2020/12/24 06:50:48;;;;;;;0.77;0.30;;;12.10;63.40;;;;;;5048172;28;20233;-66
2020/12/24 06:53:24;;;;;;;0.30;0.30;;;12.00;63.70;;;;;;5054484;28;20197;-66
2020/12/24 06:56:34;;;;;;;0.50;0.40;;;12.00;63.40;;;;;;5055601;28;20208;-66
2020/12/24 06:59:04;;;;;;;0.53;0.30;;;12.00;63.90;;;;;;5050579;28;20278;-66
2020/12/24 07:01:32;;;;;;;0.80;0.70;;;12.00;63.40;;;;;;5054826;28;20233;-66
2020/12/24 07:04:01;;;;;;;0.50;0.40;;;12.00;63.70;;;;;;5054399;28;20213;-67
2020/12/24 07:06:51;;;;;;;0.53;0.40;;;12.00;63.70;;;;;;5054000;28;20210;-66
2020/12/24 07:09:46;;;;;;;0.57;0.30;;;12.00;63.00;;;;;;5049873;28;20313;-66
2020/12/24 07:12:34;;;;;;;0.50;0.50;;;12.00;62.90;;;;;;5052353;28;20311;-66
2020/12/24 07:15:24;;;;;;;0.40;0.40;;;11.90;62.60;;;;;;5051512;28;20209;-66
2020/12/24 07:17:55;;;;;;;1.60;0.40;;;11.90;62.40;;;;;;5054825;28;20209;-68
2020/12/24 07:20:26;;;;;;;0.73;0.40;;;11.90;63.00;;;;;;5054942;28;20225;-67
2020/12/24 07:22:55;;;;;;;0.50;0.40;;;11.90;63.00;;;;;;5050365;28;20205;-67
2020/12/24 07:25:24;;;;;;;0.70;0.40;;;11.90;62.90;;;;;;5055330;28;20197;-67
2020/12/24 07:27:52;;;;;;;0.43;0.40;;;11.90;62.90;;;;;;5052781;28;20229;-67
2020/12/24 07:30:23;;;;;;;0.40;0.40;;;11.90;62.90;;;;;;5052534;28;20672;-66
2020/12/24 07:32:56;;;;;;;0.57;0.33;;;11.90;62.90;;;;;;5052430;28;20209;-66
2020/12/24 07:35:23;;;;;;;0.40;0.40;;;11.80;62.40;;;;;;5053726;28;20196;-66
2020/12/24 07:37:50;;;;;;;0.30;0.30;;;11.90;62.70;;;;;;5051911;28;20205;-66
2020/12/24 07:40:18;;;;;;;0.40;0.40;;;11.80;62.50;;;;;;5050682;28;20267;-65
2020/12/24 07:42:45;;;;;;;0.30;0.30;;;11.80;62.40;;;;;;5051635;28;20300;-65
2020/12/24 07:45:13;;;;;;;0.40;0.40;;;11.80;62.40;;;;;;5050425;28;20565;-66
2020/12/24 07:47:45;;;;;;;0.40;0.40;;;11.80;62.50;;;;;;5054384;28;20233;-66
2020/12/24 07:50:13;;;;;;;0.40;0.40;;;11.80;62.00;;;;;;5054751;28;20220;-68
2020/12/24 07:52:40;;;;;;;0.97;0.50;;;11.80;62.20;;;;;;5054570;28;20216;-65
2020/12/24 07:55:13;;;;;;;1.30;0.40;;;11.80;62.00;;;;;;5052323;28;20290;-66
2020/12/24 07:57:39;;;;;;;1.17;1.00;;;11.80;61.50;;;;;;5052337;28;20198;-66
2020/12/24 08:00:06;;;;;;;0.60;0.60;;;11.80;61.70;;;;;;5051486;28;20283;-69
2020/12/24 08:02:33;;;;;;;0.80;0.50;;;11.90;61.80;;;;;;5054415;28;20205;-67
2020/12/24 08:05:00;;;;;;;0.30;0.30;;;11.80;61.70;;;;;;5057445;28;20663;-68
2020/12/24 08:07:27;;;;;;;0.50;0.50;;;11.90;61.50;;;;;;5058366;28;20263;-67
2020/12/24 08:09:54;;;;;;;0.47;0.40;;;11.80;61.10;;;;;;5060644;28;20354;-67
2020/12/24 08:12:22;;;;;;;0.60;0.50;;;11.90;61.10;;;;;;5053606;28;20712;-68
2020/12/24 08:14:50;;;;;;;0.40;0.40;;;11.80;60.80;;;;;;5055402;28;20208;-68
2020/12/24 08:17:29;;;;;;;0.90;0.90;;;11.90;60.80;;;;;;5054316;28;20205;-65
2020/12/24 08:20:06;;;;;;;0.63;0.50;;;11.90;60.80;;;;;;5055683;28;20297;-65
2020/12/24 08:22:46;;;;;;;1.33;0.80;;;11.90;60.50;;;;;;5057102;28;20205;-65
2020/12/24 08:25:16;;;;;;;2.27;0.77;;;11.90;60.50;;;;;;5058385;28;20208;-67
2020/12/24 08:27:46;;;;;;;0.93;0.80;;;11.90;60.30;;;;;;5059802;28;20220;-67
2020/12/24 08:30:15;;;;;;;0.90;0.67;;;11.90;60.30;;;;;;5058753;28;20674;-69
2020/12/24 08:32:42;;;;;;;0.60;0.60;;;11.90;60.10;;;;;;5056850;28;20205;-66
2020/12/24 08:35:10;;;;;;;0.67;0.60;;;11.90;60.20;;;;;;5059313;28;20694;-67
2020/12/24 08:37:38;;;;;;;1.87;0.80;;;11.90;60.10;;;;;;5057669;28;20216;-67
2020/12/24 08:40:22;;;;;;;0.63;0.50;;;12.00;60.20;;;;;;5057112;28;20386;-67
2020/12/24 08:42:48;;;;;;;0.90;0.40;;;11.90;60.00;;;;;;5057502;28;20205;-67
2020/12/24 08:45:15;;;;;;;0.50;0.50;;;12.00;60.00;;;;;;5058113;28;20322;-66
2020/12/24 08:47:42;;;;;;;0.40;0.40;;;12.00;60.00;;;;;;5059923;28;20229;-66
2020/12/24 08:50:08;;;;;;;0.30;0.30;;;12.10;60.00;;;;;;5059692;28;20197;-67
2020/12/24 08:52:38;;;;;;;0.70;0.67;;;12.10;59.90;;;;;;5059009;28;20262;-68
2020/12/24 08:55:06;;;;;;;0.73;0.43;;;12.10;59.80;;;;;;5074429;28;20209;-68
2020/12/24 08:57:34;;;;;;;0.50;0.50;;;12.10;59.60;;;;;;5082155;28;20194;-68
2020/12/24 09:00:03;;;;;;;0.40;0.40;;;12.20;59.50;;;;;;5066851;28;20224;-67
2020/12/24 09:02:32;;;;;;;0.53;0.47;;;12.30;59.30;;;;;;5061533;28;20209;-67
2020/12/24 09:05:00;;;;;;;0.40;0.40;;;12.30;59.20;;;;;;5058675;28;20216;-68
2020/12/24 09:07:30;;;;;;;0.37;0.37;;;12.30;59.10;;;;;;5060649;28;20233;-67
2020/12/24 09:10:09;;;;;;;0.60;0.50;;;12.40;59.10;;;;;;5060385;28;20235;-70
2020/12/24 09:12:38;;;;;;;0.33;0.33;;;12.40;58.60;;;;;;5059649;28;20209;-68
2020/12/24 09:15:08;;;;;;;0.40;0.40;;;12.40;58.90;;;;;;5058876;28;20201;-67
2020/12/24 09:17:36;;;;;;;0.67;0.40;;;12.40;58.80;;;;;;5059138;28;20209;-68
2020/12/24 09:20:08;;;;;;;0.30;0.30;;;12.40;58.80;;;;;;5054702;28;20221;-68
2020/12/24 09:22:36;;;;;;;0.60;0.43;;;12.40;58.70;;;;;;5060752;28;20198;-66
2020/12/24 09:25:03;;;;;;;0.93;0.50;;;12.40;58.80;;;;;;5060546;28;20198;-68
2020/12/24 09:27:31;;;;;;;0.70;0.50;;;12.40;58.90;;;;;;5059192;28;20251;-68
2020/12/24 09:29:57;;;;;;;0.70;0.70;;;12.40;59.00;;;;;;5049805;28;20271;-66
2020/12/24 09:32:23;;;;;;;0.87;0.77;;;12.40;59.10;;;;;;5055616;28;20228;-67
2020/12/24 09:34:50;;;;;;;0.47;0.47;;;12.50;59.30;;;;;;5055754;28;20229;-64
2020/12/24 09:37:16;;;;;;;0.57;0.47;;;12.50;59.30;;;;;;5057452;28;20205;-64
2020/12/24 09:39:43;;;;;;;0.60;0.60;;;12.50;59.20;;;;;;5060546;28;20210;-63
2020/12/24 09:42:12;;;;;;;0.73;0.50;;;12.50;59.10;;;;;;5059060;28;20229;-62
2020/12/24 09:44:39;;;;;;;0.87;0.50;;;12.60;59.00;;;;;;5060832;28;20235;-64
2020/12/24 09:47:06;;;;;;;0.97;0.53;;;12.60;59.00;;;;;;5061075;28;20205;-63
2020/12/24 09:49:33;;;;;;;0.50;0.50;;;12.60;59.00;;;;;;5061315;28;20228;-63
2020/12/24 09:52:00;;;;;;;0.40;0.40;;;12.70;59.10;;;;;;5053496;28;20229;-66
2020/12/24 09:54:27;;;;;;;1.13;0.60;;;12.70;58.90;;;;;;5060009;28;20224;-67
2020/12/24 09:56:56;;;;;;;0.40;0.40;;;12.70;58.70;;;;;;5057267;28;20217;-67
2020/12/24 09:59:23;;;;;;;0.43;0.40;;;12.80;58.70;;;;;;5059286;28;20204;-67
2020/12/24 10:01:54;;;;;;;0.53;0.40;;;12.80;58.70;;;;;;5054260;28;20240;-67
2020/12/24 10:04:20;;;;;;;0.40;0.40;;;12.80;58.60;;;;;;5064162;28;20293;-67
2020/12/24 10:06:47;;;;;;;0.50;0.50;;;12.90;58.60;;;;;;5064381;28;20220;-67
2020/12/24 10:09:15;;;;;;;0.50;0.50;;;12.90;58.30;;;;;;5063945;28;20228;-67
2020/12/24 10:11:46;;;;;;;0.67;0.60;;;13.00;58.10;;;;;;5054055;28;20281;-67
2020/12/24 10:14:13;;;;;;;0.43;0.43;;;13.00;57.90;;;;;;5053367;28;20711;-70
2020/12/24 10:16:39;;;;;;;0.60;0.50;;;13.00;58.10;;;;;;5052682;28;20300;-67
2020/12/24 10:19:06;;;;;;;0.53;0.50;;;13.10;58.40;;;;;;5055816;28;20213;-67
2020/12/24 10:21:33;;;;;;;0.50;0.50;;;13.10;58.40;;;;;;5055235;28;20229;-68
2020/12/24 10:23:59;;;;;;;0.90;0.50;;;13.20;58.30;;;;;;5053159;28;20260;-68
2020/12/24 10:26:25;;;;;;;0.50;0.50;;;13.30;58.10;;;;;;5054316;28;20201;-68
2020/12/24 10:28:52;;;;;;;0.50;0.40;;;13.40;57.90;;;;;;5054653;28;20305;-67
2020/12/24 10:31:18;;;;;;;0.50;0.40;;;13.50;57.80;;;;;;5057030;28;20686;-68
2020/12/24 10:33:45;;;;;;;0.60;0.50;;;13.50;57.40;;;;;;5053485;28;20213;-67
2020/12/24 10:36:20;;;;;;;0.40;0.40;;;13.50;57.40;;;;;;5058594;28;20667;-67
2020/12/24 10:38:47;;;;;;;0.50;0.50;;;13.50;57.40;;;;;;5057889;28;20209;-66
2020/12/24 10:41:13;;;;;;;0.33;0.33;;;13.60;57.80;;;;;;5058160;28;20228;-67
2020/12/24 10:43:39;;;;;;;0.43;0.43;;;13.60;58.00;;;;;;5058935;28;20206;-68
2020/12/24 10:46:06;;;;;;;0.30;0.30;;;13.80;58.00;;;;;;5056636;28;20200;-66
2020/12/24 10:48:32;;;;;;;0.53;0.40;;;13.90;57.60;;;;;;5050095;28;20221;-67
2020/12/24 10:50:59;;;;;;;0.77;0.50;;;14.10;57.30;;;;;;5044949;28;20233;-66
2020/12/24 10:53:26;;;;;;;0.50;0.37;;;14.10;57.00;;;;;;5048563;28;20213;-67
2020/12/24 10:55:53;;;;;;;0.53;0.43;;;14.20;56.40;;;;;;5053772;28;20305;-67
2020/12/24 10:58:19;;;;;;;0.50;0.50;;;14.20;56.50;;;;;;5055158;28;20197;-67
2020/12/24 11:00:45;;;;;;;1.10;0.50;;;14.20;56.40;;;;;;5054748;28;20249;-67
2020/12/24 11:03:12;;;;;;;0.43;0.43;;;14.20;56.80;;;;;;5050811;28;20204;-66
2020/12/24 11:05:38;;;;;;;0.50;0.50;;;14.40;57.70;;;;;;5050067;28;20205;-67
2020/12/24 11:08:05;;;;;;;0.90;0.60;;;14.70;58.10;;;;;;5057004;28;20667;-67
2020/12/24 11:10:32;;;;;;;1.60;0.53;;;15.20;57.90;;;;;;5055117;28;20221;-66
2020/12/24 11:12:58;;;;;;;0.60;0.40;;;15.50;56.90;;;;;;5051629;28;20208;-68
2020/12/24 11:15:25;;;;;;;0.60;0.50;;;15.90;56.30;;;;;;5055691;28;20205;-66
2020/12/24 11:17:51;;;;;;;0.80;0.47;;;16.30;56.80;;;;;;5053730;28;20208;-67
2020/12/24 11:20:18;;;;;;;0.40;0.40;;;16.70;56.70;;;;;;5054854;28;20229;-66
2020/12/24 11:22:44;;;;;;;0.77;0.57;;;17.20;56.50;;;;;;5051973;28;20209;-67
2020/12/24 11:25:11;;;;;;;0.70;0.30;;;17.70;56.10;;;;;;5050223;28;20214;-68
2020/12/24 11:27:38;;;;;;;0.50;0.30;;;18.10;55.50;;;;;;5056244;28;20224;-69
2020/12/24 11:30:04;;;;;;;0.43;0.40;;;18.50;54.40;;;;;;5053896;28;20747;-68
2020/12/24 11:32:31;;;;;;;0.40;0.27;;;18.80;53.90;;;;;;5053791;28;20210;-67
2020/12/24 11:34:57;;;;;;;0.30;0.30;;;19.00;53.30;;;;;;5053509;28;20206;-68
2020/12/24 11:37:24;;;;;;;0.30;0.30;;;19.20;53.20;;;;;;5055001;28;20296;-67
2020/12/24 11:39:50;;;;;;;0.30;0.30;;;19.30;53.20;;;;;;5055584;28;22324;-69
2020/12/24 11:42:17;;;;;;;0.77;0.40;;;19.50;52.60;;;;;;5057058;28;20205;-68
2020/12/24 11:44:44;;;;;;;0.30;0.30;;;19.60;52.10;;;;;;5054091;28;20232;-68
2020/12/24 11:47:10;;;;;;;0.37;0.23;;;19.50;51.10;;;;;;5053554;28;20306;-67
2020/12/24 11:49:37;;;;;;;0.30;0.30;;;19.50;50.50;;;;;;5051721;28;20233;-69
2020/12/24 11:52:04;;;;;;;1.60;0.40;;;19.20;50.60;;;;;;5048476;28;20225;-69
2020/12/24 11:54:30;;;;;;;0.43;0.30;;;19.00;50.80;;;;;;5048711;28;20266;-68
2020/12/24 11:56:57;;;;;;;0.60;0.40;;;18.70;50.90;;;;;;5046103;28;20224;-69
2020/12/24 11:59:23;;;;;;;0.60;0.30;;;18.50;51.10;;;;;;5055622;28;20205;-69
2020/12/24 12:01:51;;;;;;;0.30;0.30;;;18.40;51.30;;;;;;5054201;28;20259;-67
2020/12/24 12:04:17;;;;;;;0.40;0.40;;;18.20;51.30;;;;;;5054122;28;20209;-67
2020/12/24 12:06:44;;;;;;;0.20;0.20;;;18.10;51.60;;;;;;5055092;28;21083;-67
2020/12/24 12:09:11;;;;;;;0.30;0.20;;;17.90;51.40;;;;;;5054291;28;20294;-67
2020/12/24 12:11:37;;;;;;;0.63;0.50;;;17.90;52.00;;;;;;5048935;28;20229;-67
2020/12/24 12:14:04;;;;;;;0.40;0.40;;;17.90;52.40;;;;;;5051916;28;20318;-68
2020/12/24 12:16:30;;;;;;;1.07;0.40;;;17.80;52.40;;;;;;5049637;28;20662;-67
2020/12/24 12:18:57;;;;;;;0.40;0.20;;;17.90;52.70;;;;;;5051672;28;20220;-67
2020/12/24 12:21:24;;;;;;;0.30;0.30;;;17.90;52.50;;;;;;5046987;28;20271;-68
2020/12/24 12:23:50;;;;;;;0.33;0.30;;;18.00;52.30;;;;;;5053676;28;20206;-67
2020/12/24 12:26:17;;;;;;;0.30;0.30;;;18.00;51.60;;;;;;5054299;28;20289;-67
2020/12/24 12:28:46;;;;;;;0.50;0.47;;;18.00;51.20;;;;;;5054430;28;20228;-66
2020/12/24 12:31:20;;;;;;;0.30;0.30;;;18.00;51.20;;;;;;5055430;28;20751;-67
2020/12/24 12:33:48;;;;;;;0.50;0.30;;;17.90;50.90;;;;;;5060174;28;20677;-67
2020/12/24 12:36:18;;;;;;;0.83;0.40;;;17.80;50.20;;;;;;5060204;28;20904;-70
2020/12/24 12:38:46;;;;;;;0.97;0.40;;;17.60;49.70;;;;;;5061764;28;20240;-67
2020/12/24 12:41:13;;;;;;;1.23;0.30;;;17.40;50.60;;;;;;5054917;28;20224;-67
2020/12/24 12:43:39;;;;;;;1.07;0.70;;;17.30;50.90;;;;;;5058144;28;20205;-67
2020/12/24 12:46:06;;;;;;;0.40;0.40;;;17.20;50.80;;;;;;5059247;28;20582;-66
2020/12/24 12:48:33;;;;;;;0.20;0.20;;;17.00;51.20;;;;;;5059189;28;20232;-66
2020/12/24 12:51:00;;;;;;;0.70;0.30;;;16.90;51.10;;;;;;5058636;28;21066;-66
2020/12/24 12:53:27;;;;;;;1.00;0.40;;;16.80;51.00;;;;;;5059652;28;20205;-66
2020/12/24 12:55:54;;;;;;;0.43;0.30;;;16.70;51.20;;;;;;5060684;28;20224;-69